createdAt,value
2018-12-19T00:00:56.372Z,0.00
2018-12-19T00:01:56.359Z,0.00
2018-12-19T00:02:56.363Z,0.00
2018-12-19T00:03:56.352Z,0.00
2018-12-19T00:04:56.333Z,0.00
2018-12-19T00:05:56.316Z,0.00
2018-12-19T00:06:56.304Z,0.00
2018-12-19T00:07:56.311Z,0.00
2018-12-19T00:08:56.292Z,0.00
2018-12-19T00:09:56.283Z,0.00
2018-12-19T00:10:56.261Z,0.00
2018-12-19T00:11:56.249Z,0.00
2018-12-19T00:12:56.253Z,0.00
2018-12-19T00:13:56.228Z,0.00
2018-12-19T00:14:56.222Z,0.00
2018-12-19T00:15:56.214Z,0.00
2018-12-19T00:16:56.218Z,0.00
2018-12-19T00:17:56.199Z,0.00
2018-12-19T00:18:56.179Z,0.00
2018-12-19T00:19:56.161Z,0.00
2018-12-19T00:20:56.150Z,0.00
2018-12-19T00:21:56.147Z,0.00
2018-12-19T00:22:56.161Z,0.00
2018-12-19T00:23:56.123Z,0.00
2018-12-19T00:24:56.112Z,0.00
2018-12-19T00:25:56.095Z,0.00
2018-12-19T00:26:56.091Z,0.00
2018-12-19T00:27:56.089Z,0.00
2018-12-19T00:28:56.076Z,0.00
2018-12-19T00:29:56.058Z,0.00
2018-12-19T00:30:56.047Z,0.00
2018-12-19T00:31:56.033Z,0.00
2018-12-19T00:32:56.040Z,0.00
2018-12-19T00:33:56.007Z,0.00
2018-12-19T00:34:56.011Z,0.00
2018-12-19T00:35:55.986Z,0.00
2018-12-19T00:36:55.977Z,0.00
2018-12-19T00:37:55.982Z,0.00
2018-12-19T00:38:55.953Z,0.00
2018-12-19T00:39:55.949Z,0.00
2018-12-19T00:40:55.944Z,0.00
2018-12-19T00:41:55.919Z,0.00
2018-12-19T00:42:55.926Z,0.00
2018-12-19T00:43:55.906Z,0.00
2018-12-19T00:44:55.888Z,0.00
2018-12-19T00:45:55.877Z,0.00
2018-12-19T00:46:55.872Z,0.00
2018-12-19T00:47:55.880Z,0.00
2018-12-19T00:48:55.852Z,0.00
2018-12-19T00:49:55.832Z,0.00
2018-12-19T00:50:55.824Z,0.00
2018-12-19T00:51:55.817Z,0.00
2018-12-19T00:52:55.822Z,0.00
2018-12-19T00:53:55.799Z,0.00
2018-12-19T00:54:55.778Z,0.00
2018-12-19T00:55:55.765Z,0.00
2018-12-19T00:56:55.763Z,0.00
2018-12-19T00:57:55.761Z,0.00
2018-12-19T00:58:55.734Z,0.00
2018-12-19T00:59:55.734Z,0.00
2018-12-19T01:00:55.711Z,0.00
2018-12-19T01:01:55.712Z,0.00
2018-12-19T01:02:55.706Z,0.00
2018-12-19T01:03:55.677Z,0.00
2018-12-19T01:04:55.667Z,0.00
2018-12-19T01:05:55.665Z,0.00
2018-12-19T01:06:55.646Z,0.00
2018-12-19T01:07:55.655Z,0.00
2018-12-19T01:08:55.624Z,0.00
2018-12-19T01:09:55.613Z,0.00
2018-12-19T01:10:55.602Z,0.00
2018-12-19T01:11:55.604Z,0.00
2018-12-19T01:12:55.599Z,0.00
2018-12-19T01:13:55.568Z,0.00
2018-12-19T01:14:55.567Z,0.00
2018-12-19T01:15:55.553Z,0.00
2018-12-19T01:16:55.537Z,0.00
2018-12-19T01:17:55.553Z,0.00
2018-12-19T01:18:55.515Z,0.00
2018-12-19T01:19:55.510Z,0.00
2018-12-19T01:20:55.492Z,0.00
2018-12-19T01:21:55.487Z,0.00
2018-12-19T01:22:55.492Z,0.00
2018-12-19T01:23:55.471Z,0.00
2018-12-19T01:24:55.457Z,0.00
2018-12-19T01:25:55.450Z,0.00
2018-12-19T01:26:55.427Z,0.00
2018-12-19T01:27:55.430Z,0.00
2018-12-19T01:28:55.403Z,0.00
2018-12-19T01:29:55.404Z,0.00
2018-12-19T01:30:55.388Z,0.00
2018-12-19T01:31:55.373Z,0.00
2018-12-19T01:32:55.386Z,0.00
2018-12-19T01:33:55.357Z,0.00
2018-12-19T01:34:55.347Z,0.00
2018-12-19T01:35:55.339Z,0.00
2018-12-19T01:36:55.316Z,0.00
2018-12-19T01:37:55.320Z,0.00
2018-12-19T01:38:55.294Z,0.00
2018-12-19T01:39:55.290Z,0.00
2018-12-19T01:40:55.279Z,0.00
2018-12-19T01:41:55.270Z,0.00
2018-12-19T01:42:55.268Z,0.00
2018-12-19T01:43:55.239Z,0.00
2018-12-19T01:44:55.227Z,0.00
2018-12-19T01:45:55.217Z,0.00
2018-12-19T01:46:55.209Z,0.00
2018-12-19T01:47:55.226Z,0.00
2018-12-19T01:48:55.185Z,0.00
2018-12-19T01:49:55.180Z,0.00
2018-12-19T01:50:55.164Z,0.00
2018-12-19T01:51:55.151Z,0.00
2018-12-19T01:52:55.162Z,0.00
2018-12-19T01:53:55.135Z,0.00
2018-12-19T01:54:55.121Z,0.00
2018-12-19T01:55:55.106Z,0.00
2018-12-19T01:56:55.107Z,0.00
2018-12-19T01:57:55.101Z,0.00
2018-12-19T01:58:55.076Z,0.00
2018-12-19T01:59:55.073Z,0.00
2018-12-19T02:00:55.052Z,0.00
2018-12-19T02:01:55.042Z,0.00
2018-12-19T02:02:55.051Z,0.00
2018-12-19T02:03:55.027Z,0.00
2018-12-19T02:04:55.009Z,0.00
2018-12-19T02:05:55.022Z,0.00
2018-12-19T02:06:54.988Z,0.00
2018-12-19T02:07:54.992Z,0.00
2018-12-19T02:08:54.966Z,0.00
2018-12-19T02:09:54.955Z,0.00
2018-12-19T02:10:54.950Z,0.00
2018-12-19T02:11:54.949Z,0.00
2018-12-19T02:12:54.940Z,0.00
2018-12-19T02:13:54.918Z,0.00
2018-12-19T02:14:54.899Z,0.00
2018-12-19T02:15:54.888Z,0.00
2018-12-19T02:16:54.877Z,0.00
2018-12-19T02:17:54.885Z,0.00
2018-12-19T02:18:54.858Z,0.00
2018-12-19T02:19:54.844Z,0.00
2018-12-19T02:20:54.833Z,0.00
2018-12-19T02:21:54.830Z,0.00
2018-12-19T02:22:54.829Z,0.00
2018-12-19T02:23:54.815Z,0.00
2018-12-19T02:24:54.793Z,0.00
2018-12-19T02:25:54.780Z,0.00
2018-12-19T02:26:54.770Z,0.00
2018-12-19T02:27:54.772Z,0.00
2018-12-19T02:28:54.753Z,0.00
2018-12-19T02:29:54.753Z,0.00
2018-12-19T02:30:54.727Z,0.00
2018-12-19T02:31:54.714Z,0.00
2018-12-19T02:32:54.724Z,0.00
2018-12-19T02:33:54.698Z,0.00
2018-12-19T02:34:54.683Z,0.00
2018-12-19T02:35:54.693Z,0.00
2018-12-19T02:36:54.669Z,0.00
2018-12-19T02:37:54.647Z,0.00
2018-12-19T02:38:54.652Z,0.00
2018-12-19T02:39:54.632Z,0.00
2018-12-19T02:40:54.616Z,0.00
2018-12-19T02:41:54.627Z,0.00
2018-12-19T02:42:54.600Z,0.00
2018-12-19T02:43:54.606Z,0.00
2018-12-19T02:44:54.572Z,0.00
2018-12-19T02:45:54.565Z,0.00
2018-12-19T02:46:54.554Z,0.00
2018-12-19T02:47:54.565Z,0.00
2018-12-19T02:48:54.543Z,0.00
2018-12-19T02:49:54.515Z,0.00
2018-12-19T02:50:54.505Z,0.00
2018-12-19T02:51:54.499Z,0.00
2018-12-19T02:52:54.486Z,0.00
2018-12-19T02:53:54.510Z,0.00
2018-12-19T02:54:54.460Z,0.00
2018-12-19T02:55:54.450Z,0.00
2018-12-19T02:56:54.443Z,0.00
2018-12-19T02:57:54.430Z,0.00
2018-12-19T02:58:54.446Z,0.00
2018-12-19T02:59:54.419Z,0.00
2018-12-19T03:00:54.396Z,0.00
2018-12-19T03:01:54.390Z,0.00
2018-12-19T03:02:54.381Z,0.00
2018-12-19T03:03:54.397Z,0.00
2018-12-19T03:04:54.370Z,0.00
2018-12-19T03:05:54.357Z,0.00
2018-12-19T03:06:54.330Z,0.00
2018-12-19T03:07:54.320Z,0.00
2018-12-19T03:08:54.328Z,0.00
2018-12-19T03:09:54.298Z,0.00
2018-12-19T03:10:54.285Z,0.00
2018-12-19T03:11:54.294Z,0.00
2018-12-19T03:12:54.263Z,0.00
2018-12-19T03:13:54.271Z,0.00
2018-12-19T03:14:54.248Z,0.00
2018-12-19T03:15:54.239Z,0.00
2018-12-19T03:16:54.219Z,0.00
2018-12-19T03:17:54.219Z,0.00
2018-12-19T03:18:54.215Z,0.00
2018-12-19T03:19:54.187Z,0.00
2018-12-19T03:20:54.184Z,0.00
2018-12-19T03:21:54.171Z,0.00
2018-12-19T03:22:54.156Z,0.00
2018-12-19T03:23:54.161Z,0.00
2018-12-19T03:24:54.144Z,0.00
2018-12-19T03:25:54.122Z,0.00
2018-12-19T03:26:54.114Z,0.00
2018-12-19T03:27:54.111Z,0.00
2018-12-19T03:28:54.116Z,0.00
2018-12-19T03:29:54.076Z,0.00
2018-12-19T03:30:54.082Z,0.00
2018-12-19T03:31:54.063Z,0.00
2018-12-19T03:32:54.053Z,0.00
2018-12-19T03:33:54.056Z,0.00
2018-12-19T03:34:54.038Z,0.00
2018-12-19T03:35:54.019Z,0.00
2018-12-19T03:36:54.000Z,0.00
2018-12-19T03:37:53.996Z,0.00
2018-12-19T03:38:54.007Z,0.00
2018-12-19T03:39:53.987Z,0.00
2018-12-19T03:40:53.956Z,0.00
2018-12-19T03:41:53.946Z,0.00
2018-12-19T03:42:53.936Z,0.00
2018-12-19T03:43:53.946Z,0.00
2018-12-19T03:44:53.934Z,0.00
2018-12-19T03:45:53.908Z,0.00
2018-12-19T03:46:53.898Z,0.00
2018-12-19T03:47:53.886Z,0.00
2018-12-19T03:48:53.884Z,0.00
2018-12-19T03:49:53.857Z,0.00
2018-12-19T03:50:53.878Z,0.00
2018-12-19T03:51:53.841Z,0.00
2018-12-19T03:52:53.833Z,0.00
2018-12-19T03:53:53.831Z,0.00
2018-12-19T03:54:53.805Z,0.00
2018-12-19T03:55:53.799Z,0.00
2018-12-19T03:56:53.781Z,0.00
2018-12-19T03:57:53.787Z,0.00
2018-12-19T03:58:53.787Z,0.00
2018-12-19T03:59:53.749Z,0.00
2018-12-19T04:00:53.740Z,0.00
2018-12-19T04:01:53.733Z,0.00
2018-12-19T04:02:53.728Z,0.00
2018-12-19T04:03:53.744Z,0.00
2018-12-19T04:04:53.694Z,0.00
2018-12-19T04:05:53.688Z,0.00
2018-12-19T04:06:53.672Z,0.00
2018-12-19T04:07:53.662Z,0.00
2018-12-19T04:08:53.679Z,0.00
2018-12-19T04:09:57.778Z,0.00
2018-12-19T04:10:53.628Z,0.00
2018-12-19T04:11:53.624Z,0.00
2018-12-19T04:12:53.613Z,0.00
2018-12-19T04:13:53.621Z,0.00
2018-12-19T04:14:53.584Z,0.00
2018-12-19T04:15:53.594Z,0.00
2018-12-19T04:16:53.563Z,0.00
2018-12-19T04:17:53.550Z,0.00
2018-12-19T04:18:53.560Z,0.00
2018-12-19T04:19:53.534Z,0.00
2018-12-19T04:20:53.519Z,0.00
2018-12-19T04:21:53.510Z,0.00
2018-12-19T04:22:53.509Z,0.00
2018-12-19T04:23:53.503Z,0.00
2018-12-19T04:24:53.484Z,0.00
2018-12-19T04:25:53.480Z,0.00
2018-12-19T04:26:53.454Z,0.00
2018-12-19T04:27:53.458Z,0.00
2018-12-19T04:28:53.454Z,0.00
2018-12-19T04:29:53.429Z,0.00
2018-12-19T04:30:53.409Z,0.00
2018-12-19T04:31:53.399Z,0.00
2018-12-19T04:32:53.388Z,0.00
2018-12-19T04:33:53.393Z,0.00
2018-12-19T04:34:53.375Z,0.00
2018-12-19T04:35:53.354Z,0.00
2018-12-19T04:36:54.467Z,0.00
2018-12-19T04:37:53.340Z,0.00
2018-12-19T04:38:53.336Z,0.00
2018-12-19T04:39:53.311Z,0.00
2018-12-19T04:40:53.308Z,0.00
2018-12-19T04:41:53.290Z,0.00
2018-12-19T04:42:53.288Z,0.00
2018-12-19T04:43:53.282Z,0.00
2018-12-19T04:44:53.257Z,0.00
2018-12-19T04:45:53.254Z,0.00
2018-12-19T04:46:53.240Z,0.00
2018-12-19T04:47:53.229Z,0.00
2018-12-19T04:48:53.231Z,0.00
2018-12-19T04:49:53.208Z,0.00
2018-12-19T04:50:53.191Z,0.00
2018-12-19T04:51:53.177Z,0.00
2018-12-19T04:52:53.176Z,0.00
2018-12-19T04:53:53.470Z,0.00
2018-12-19T04:54:53.158Z,0.00
2018-12-19T04:55:53.135Z,0.00
2018-12-19T04:56:53.123Z,0.00
2018-12-19T04:57:53.114Z,0.00
2018-12-19T04:58:53.117Z,0.00
2018-12-19T04:59:53.105Z,0.00
2018-12-19T05:00:53.092Z,0.00
2018-12-19T05:01:53.075Z,0.00
2018-12-19T05:02:53.063Z,0.00
2018-12-19T05:03:53.053Z,0.00
2018-12-19T05:04:53.070Z,0.00
2018-12-19T05:05:53.033Z,0.00
2018-12-19T05:06:53.012Z,0.00
2018-12-19T05:07:53.001Z,0.00
2018-12-19T05:08:52.993Z,0.00
2018-12-19T05:09:53.004Z,0.00
2018-12-19T05:10:52.984Z,0.00
2018-12-19T05:11:52.968Z,0.00
2018-12-19T05:12:52.956Z,0.00
2018-12-19T05:13:52.937Z,0.00
2018-12-19T05:14:52.947Z,0.00
2018-12-19T05:15:52.916Z,0.00
2018-12-19T05:16:52.912Z,0.00
2018-12-19T05:17:52.911Z,0.00
2018-12-19T05:18:52.886Z,0.00
2018-12-19T05:19:52.890Z,0.00
2018-12-19T05:20:52.861Z,0.00
2018-12-19T05:21:52.854Z,0.00
2018-12-19T05:22:52.859Z,0.00
2018-12-19T05:23:52.835Z,0.00
2018-12-19T05:24:52.851Z,0.00
2018-12-19T05:25:52.806Z,0.00
2018-12-19T05:26:52.794Z,0.00
2018-12-19T05:27:52.799Z,0.00
2018-12-19T05:28:52.790Z,0.00
2018-12-19T05:29:53.315Z,0.00
2018-12-19T05:30:52.753Z,0.00
2018-12-19T05:31:52.738Z,0.00
2018-12-19T05:32:52.727Z,0.00
2018-12-19T05:33:52.718Z,0.00
2018-12-19T05:34:52.736Z,0.00
2018-12-19T05:35:52.695Z,0.00
2018-12-19T05:36:52.683Z,0.00
2018-12-19T05:37:52.674Z,0.00
2018-12-19T05:38:52.673Z,0.00
2018-12-19T05:39:52.667Z,0.00
2018-12-19T05:40:52.703Z,0.00
2018-12-19T05:41:52.636Z,0.00
2018-12-19T05:42:52.627Z,0.00
2018-12-19T05:43:52.613Z,0.00
2018-12-19T05:44:52.614Z,0.00
2018-12-19T05:45:52.589Z,0.00
2018-12-19T05:46:52.584Z,0.00
2018-12-19T05:47:52.565Z,0.00
2018-12-19T05:48:52.553Z,0.00
2018-12-19T05:49:52.563Z,0.00
2018-12-19T05:50:52.536Z,0.00
2018-12-19T05:51:52.527Z,0.00
2018-12-19T05:52:52.527Z,0.00
2018-12-19T05:53:52.499Z,0.00
2018-12-19T05:54:52.504Z,0.00
2018-12-19T05:55:52.503Z,0.00
2018-12-19T05:56:52.472Z,0.00
2018-12-19T05:57:52.466Z,0.00
2018-12-19T05:58:52.464Z,0.00
2018-12-19T05:59:52.449Z,0.00
2018-12-19T06:00:52.422Z,0.00
2018-12-19T06:01:52.419Z,0.00
2018-12-19T06:02:52.399Z,0.00
2018-12-19T06:03:52.395Z,0.00
2018-12-19T06:04:52.414Z,0.00
2018-12-19T06:05:52.366Z,0.00
2018-12-19T06:06:52.362Z,0.00
2018-12-19T06:07:52.347Z,0.00
2018-12-19T06:08:52.334Z,0.00
2018-12-19T06:09:52.340Z,0.00
2018-12-19T06:10:52.333Z,0.00
2018-12-19T06:11:52.300Z,0.00
2018-12-19T06:12:52.295Z,0.00
2018-12-19T06:13:52.293Z,0.00
2018-12-19T06:14:52.283Z,0.00
2018-12-19T06:15:52.277Z,0.00
2018-12-19T06:16:52.255Z,0.00
2018-12-19T06:17:52.238Z,0.00
2018-12-19T06:18:52.231Z,0.00
2018-12-19T06:19:52.227Z,0.00
2018-12-19T06:20:52.209Z,0.00
2018-12-19T06:21:52.191Z,0.00
2018-12-19T06:22:52.192Z,0.00
2018-12-19T06:23:52.170Z,0.00
2018-12-19T06:24:52.173Z,0.00
2018-12-19T06:25:52.150Z,0.00
2018-12-19T06:26:52.149Z,0.00
2018-12-19T06:27:52.145Z,0.00
2018-12-19T06:28:52.125Z,0.00
2018-12-19T06:29:52.123Z,0.00
2018-12-19T06:30:52.160Z,0.00
2018-12-19T06:31:52.080Z,0.00
2018-12-19T06:32:52.077Z,0.00
2018-12-19T06:33:52.059Z,0.00
2018-12-19T06:34:52.075Z,0.00
2018-12-19T06:35:52.036Z,0.00
2018-12-19T06:36:52.026Z,0.00
2018-12-19T06:37:52.016Z,0.00
2018-12-19T06:38:52.024Z,0.00
2018-12-19T06:39:52.014Z,0.00
2018-12-19T06:40:51.985Z,0.00
2018-12-19T06:41:51.982Z,0.00
2018-12-19T06:42:51.964Z,0.00
2018-12-19T06:43:51.955Z,0.00
2018-12-19T06:44:51.960Z,0.00
2018-12-19T06:45:51.935Z,0.00
2018-12-19T06:46:51.926Z,0.00
2018-12-19T06:47:51.921Z,0.00
2018-12-19T06:48:51.914Z,0.00
2018-12-19T06:49:51.909Z,4.00
2018-12-19T06:50:51.890Z,4.00
2018-12-19T06:51:51.860Z,4.00
2018-12-19T06:52:51.849Z,4.00
2018-12-19T06:53:51.845Z,4.00
2018-12-19T06:54:51.848Z,4.00
2018-12-19T06:55:51.820Z,4.00
2018-12-19T06:56:51.838Z,8.00
2018-12-19T06:57:51.798Z,8.00
2018-12-19T06:58:51.786Z,4.00
2018-12-19T06:59:51.821Z,8.00
2018-12-19T07:00:51.765Z,8.00
2018-12-19T07:01:51.803Z,12.00
2018-12-19T07:02:51.747Z,8.00
2018-12-19T07:03:51.732Z,12.00
2018-12-19T07:04:51.778Z,12.00
2018-12-19T07:05:51.714Z,12.00
2018-12-19T07:06:51.700Z,16.00
2018-12-19T07:07:51.719Z,12.00
2018-12-19T07:08:51.673Z,16.00
2018-12-19T07:09:51.685Z,20.00
2018-12-19T07:10:51.655Z,16.00
2018-12-19T07:11:51.642Z,20.00
2018-12-19T07:12:51.637Z,20.00
2018-12-19T07:13:51.638Z,20.00
2018-12-19T07:14:51.666Z,20.00
2018-12-19T07:15:51.598Z,28.00
2018-12-19T07:16:51.594Z,24.00
2018-12-19T07:17:51.591Z,28.00
2018-12-19T07:18:51.565Z,32.00
2018-12-19T07:19:51.639Z,36.00
2018-12-19T07:20:51.544Z,36.00
2018-12-19T07:21:51.538Z,40.00
2018-12-19T07:22:51.523Z,44.00
2018-12-19T07:23:51.509Z,48.00
2018-12-19T07:24:51.547Z,48.00
2018-12-19T07:25:51.495Z,52.00
2018-12-19T07:26:51.478Z,60.00
2018-12-19T07:27:51.467Z,68.00
2018-12-19T07:28:51.456Z,68.00
2018-12-19T07:29:51.445Z,80.00
2018-12-19T07:30:51.453Z,84.00
2018-12-19T07:31:51.423Z,88.00
2018-12-19T07:32:51.433Z,88.00
2018-12-19T07:33:51.403Z,92.00
2018-12-19T07:34:51.395Z,96.00
2018-12-19T07:35:51.395Z,100.00
2018-12-19T07:36:51.373Z,100.00
2018-12-19T07:37:51.367Z,100.00
2018-12-19T07:38:51.354Z,100.00
2018-12-19T07:39:51.341Z,108.00
2018-12-19T07:40:51.342Z,108.00
2018-12-19T07:41:51.322Z,108.00
2018-12-19T07:42:51.311Z,108.00
2018-12-19T07:43:51.299Z,112.00
2018-12-19T07:44:51.280Z,112.00
2018-12-19T07:45:51.304Z,120.00
2018-12-19T07:46:51.272Z,124.00
2018-12-19T07:47:51.256Z,124.00
2018-12-19T07:48:51.252Z,132.00
2018-12-19T07:49:51.226Z,132.00
2018-12-19T07:50:51.230Z,136.00
2018-12-19T07:51:51.204Z,140.00
2018-12-19T07:52:51.200Z,140.00
2018-12-19T07:53:51.185Z,144.00
2018-12-19T07:54:51.177Z,152.00
2018-12-19T07:55:51.175Z,160.00
2018-12-19T07:56:51.150Z,168.00
2018-12-19T07:57:51.144Z,172.00
2018-12-19T07:58:51.134Z,184.00
2018-12-19T07:59:51.127Z,192.00
2018-12-19T08:00:51.130Z,204.00
2018-12-19T08:01:51.094Z,216.00
2018-12-19T08:02:51.089Z,224.00
2018-12-19T08:03:51.071Z,232.00
2018-12-19T08:04:51.077Z,236.00
2018-12-19T08:05:51.069Z,240.00
2018-12-19T08:06:52.426Z,244.00
2018-12-19T08:07:51.028Z,240.00
2018-12-19T08:08:51.019Z,236.00
2018-12-19T08:09:51.011Z,232.00
2018-12-19T08:10:52.384Z,224.00
2018-12-19T08:11:50.999Z,224.00
2018-12-19T08:12:50.975Z,220.00
2018-12-19T08:13:50.963Z,216.00
2018-12-19T08:14:50.952Z,216.00
2018-12-19T08:15:50.958Z,216.00
2018-12-19T08:16:50.942Z,216.00
2018-12-19T08:17:50.918Z,220.00
2018-12-19T08:18:50.909Z,220.00
2018-12-19T08:19:50.898Z,224.00
2018-12-19T08:20:50.906Z,228.00
2018-12-19T08:21:50.876Z,236.00
2018-12-19T08:22:50.875Z,244.00
2018-12-19T08:23:50.854Z,252.00
2018-12-19T08:24:50.842Z,264.00
2018-12-19T08:25:50.846Z,272.00
2018-12-19T08:26:50.819Z,280.00
2018-12-19T08:27:50.813Z,292.00
2018-12-19T08:28:50.825Z,300.00
2018-12-19T08:29:50.792Z,304.00
2018-12-19T08:30:50.793Z,308.00
2018-12-19T08:31:50.770Z,308.00
2018-12-19T08:32:50.756Z,312.00
2018-12-19T08:33:50.745Z,316.00
2018-12-19T08:34:50.747Z,316.00
2018-12-19T08:35:50.759Z,320.00
2018-12-19T08:36:50.712Z,324.00
2018-12-19T08:37:50.699Z,332.00
2018-12-19T08:38:50.702Z,344.00
2018-12-19T08:39:50.682Z,356.00
2018-12-19T08:40:50.683Z,372.00
2018-12-19T08:41:50.663Z,380.00
2018-12-19T08:42:50.650Z,396.00
2018-12-19T08:43:50.634Z,412.00
2018-12-19T08:44:50.629Z,428.00
2018-12-19T08:45:50.627Z,440.00
2018-12-19T08:46:50.620Z,452.00
2018-12-19T08:47:50.603Z,456.00
2018-12-19T08:48:50.579Z,464.00
2018-12-19T08:49:50.570Z,464.00
2018-12-19T08:50:50.581Z,468.00
2018-12-19T08:51:50.555Z,472.00
2018-12-19T08:52:50.536Z,472.00
2018-12-19T08:53:50.535Z,476.00
2018-12-19T08:54:50.513Z,488.00
2018-12-19T08:55:50.527Z,496.00
2018-12-19T08:56:50.491Z,504.00
2018-12-19T08:57:50.488Z,512.00
2018-12-19T08:58:50.471Z,520.00
2018-12-19T08:59:50.471Z,528.00
2018-12-19T09:00:50.464Z,532.00
2018-12-19T09:01:50.442Z,540.00
2018-12-19T09:02:50.427Z,552.00
2018-12-19T09:03:50.422Z,560.00
2018-12-19T09:04:50.413Z,560.00
2018-12-19T09:05:50.418Z,568.00
2018-12-19T09:06:50.381Z,572.00
2018-12-19T09:07:50.375Z,572.00
2018-12-19T09:08:50.368Z,572.00
2018-12-19T09:09:50.349Z,576.00
2018-12-19T09:10:50.355Z,580.00
2018-12-19T09:11:50.347Z,592.00
2018-12-19T09:12:50.318Z,604.00
2018-12-19T09:13:50.309Z,624.00
2018-12-19T09:14:50.294Z,636.00
2018-12-19T09:15:50.301Z,648.00
2018-12-19T09:16:50.272Z,652.00
2018-12-19T09:17:50.271Z,656.00
2018-12-19T09:18:50.250Z,660.00
2018-12-19T09:19:50.247Z,676.00
2018-12-19T09:20:50.245Z,692.00
2018-12-19T09:21:50.217Z,696.00
2018-12-19T09:22:50.219Z,692.00
2018-12-19T09:23:50.208Z,684.00
2018-12-19T09:24:50.187Z,676.00
2018-12-19T09:25:50.187Z,664.00
2018-12-19T09:26:50.172Z,652.00
2018-12-19T09:27:50.152Z,640.00
2018-12-19T09:28:50.141Z,624.00
2018-12-19T09:29:50.148Z,608.00
2018-12-19T09:30:50.137Z,604.00
2018-12-19T09:31:50.109Z,596.00
2018-12-19T09:32:50.102Z,592.00
2018-12-19T09:33:50.095Z,600.00
2018-12-19T09:34:50.075Z,608.00
2018-12-19T09:35:50.098Z,620.00
2018-12-19T09:36:50.062Z,628.00
2018-12-19T09:37:50.053Z,628.00
2018-12-19T09:38:50.042Z,608.00
2018-12-19T09:39:50.027Z,584.00
2018-12-19T09:40:50.027Z,564.00
2018-12-19T09:41:50.000Z,548.00
2018-12-19T09:42:49.999Z,532.00
2018-12-19T09:43:49.976Z,524.00
2018-12-19T09:44:49.982Z,516.00
2018-12-19T09:45:49.957Z,508.00
2018-12-19T09:46:49.961Z,504.00
2018-12-19T09:47:49.939Z,488.00
2018-12-19T09:48:49.928Z,456.00
2018-12-19T09:49:49.916Z,432.00
2018-12-19T09:50:49.920Z,428.00
2018-12-19T09:51:49.908Z,440.00
2018-12-19T09:52:49.888Z,436.00
2018-12-19T09:53:49.869Z,424.00
2018-12-19T09:54:49.855Z,412.00
2018-12-19T09:55:49.844Z,400.00
2018-12-19T09:56:49.871Z,404.00
2018-12-19T09:57:49.831Z,408.00
2018-12-19T09:58:49.832Z,424.00
2018-12-19T09:59:49.802Z,448.00
2018-12-19T10:00:49.797Z,468.00
2018-12-19T10:01:49.801Z,484.00
2018-12-19T10:02:49.777Z,488.00
2018-12-19T10:03:49.762Z,488.00
2018-12-19T10:04:49.746Z,476.00
2018-12-19T10:05:49.742Z,460.00
2018-12-19T10:06:49.744Z,448.00
2018-12-19T10:07:49.724Z,460.00
2018-12-19T10:08:49.702Z,460.00
2018-12-19T10:09:49.693Z,452.00
2018-12-19T10:10:49.681Z,424.00
2018-12-19T10:11:49.715Z,400.00
2018-12-19T10:12:49.668Z,388.00
2018-12-19T10:13:49.653Z,396.00
2018-12-19T10:14:49.644Z,416.00
2018-12-19T10:15:49.636Z,448.00
2018-12-19T10:16:49.636Z,476.00
2018-12-19T10:17:49.604Z,496.00
2018-12-19T10:18:49.604Z,508.00
2018-12-19T10:19:49.597Z,496.00
2018-12-19T10:20:49.571Z,468.00
2018-12-19T10:21:49.586Z,432.00
2018-12-19T10:22:49.558Z,404.00
2018-12-19T10:23:49.539Z,384.00
2018-12-19T10:24:49.547Z,368.00
2018-12-19T10:25:49.517Z,360.00
2018-12-19T10:26:49.523Z,356.00
2018-12-19T10:27:49.494Z,344.00
2018-12-19T10:28:49.487Z,352.00
2018-12-19T10:29:49.473Z,372.00
2018-12-19T10:30:49.486Z,400.00
2018-12-19T10:31:49.477Z,428.00
2018-12-19T10:32:49.443Z,460.00
2018-12-19T10:33:49.433Z,516.00
2018-12-19T10:34:49.431Z,568.00
2018-12-19T10:35:49.408Z,604.00
2018-12-19T10:36:49.425Z,604.00
2018-12-19T10:37:49.387Z,588.00
2018-12-19T10:38:49.377Z,588.00
2018-12-19T10:39:49.363Z,608.00
2018-12-19T10:40:49.353Z,628.00
2018-12-19T10:41:49.356Z,620.00
2018-12-19T10:42:49.355Z,584.00
2018-12-19T10:43:49.323Z,536.00
2018-12-19T10:44:49.312Z,488.00
2018-12-19T10:45:49.298Z,440.00
2018-12-19T10:46:49.305Z,424.00
2018-12-19T10:47:49.288Z,412.00
2018-12-19T10:48:49.283Z,404.00
2018-12-19T10:49:49.256Z,400.00
2018-12-19T10:50:49.249Z,388.00
2018-12-19T10:51:49.256Z,380.00
2018-12-19T10:52:49.222Z,356.00
2018-12-19T10:53:49.219Z,336.00
2018-12-19T10:54:49.218Z,320.00
2018-12-19T10:55:49.193Z,312.00
2018-12-19T10:56:49.214Z,304.00
2018-12-19T10:57:49.711Z,292.00
2018-12-19T10:58:49.160Z,284.00
2018-12-19T10:59:49.155Z,276.00
2018-12-19T11:00:49.145Z,276.00
2018-12-19T11:01:49.181Z,280.00
2018-12-19T11:02:49.120Z,284.00
2018-12-19T11:03:49.105Z,288.00
2018-12-19T11:04:49.094Z,288.00
2018-12-19T11:05:54.337Z,296.00
2018-12-19T11:06:50.113Z,304.00
2018-12-19T11:07:49.059Z,304.00
2018-12-19T11:08:49.052Z,300.00
2018-12-19T11:09:49.046Z,296.00
2018-12-19T11:10:49.032Z,296.00
2018-12-19T11:11:49.015Z,296.00
2018-12-19T11:12:49.021Z,304.00
2018-12-19T11:13:48.993Z,308.00
2018-12-19T11:14:49.010Z,304.00
2018-12-19T11:15:48.981Z,304.00
2018-12-19T11:16:48.969Z,316.00
2018-12-19T11:17:48.972Z,332.00
2018-12-19T11:18:48.946Z,352.00
2018-12-19T11:19:48.931Z,368.00
2018-12-19T11:20:48.942Z,388.00
2018-12-19T11:21:48.906Z,408.00
2018-12-19T11:22:48.913Z,428.00
2018-12-19T11:23:48.886Z,436.00
2018-12-19T11:24:48.873Z,436.00
2018-12-19T11:25:48.873Z,424.00
2018-12-19T11:26:48.861Z,412.00
2018-12-19T11:27:48.855Z,396.00
2018-12-19T11:28:48.848Z,384.00
2018-12-19T11:29:48.823Z,376.00
2018-12-19T11:30:48.815Z,380.00
2018-12-19T11:31:48.798Z,376.00
2018-12-19T11:32:48.826Z,376.00
2018-12-19T11:33:48.782Z,364.00
2018-12-19T11:34:48.771Z,340.00
2018-12-19T11:35:48.756Z,316.00
2018-12-19T11:36:48.834Z,304.00
2018-12-19T11:37:48.750Z,300.00
2018-12-19T11:38:48.733Z,300.00
2018-12-19T11:39:48.720Z,296.00
2018-12-19T11:40:48.723Z,300.00
2018-12-19T11:41:48.691Z,300.00
2018-12-19T11:42:48.694Z,300.00
2018-12-19T11:43:48.667Z,296.00
2018-12-19T11:44:48.669Z,304.00
2018-12-19T11:45:48.652Z,320.00
2018-12-19T11:46:48.634Z,344.00
2018-12-19T11:47:48.651Z,368.00
2018-12-19T11:48:48.616Z,384.00
2018-12-19T11:49:48.607Z,396.00
2018-12-19T11:50:48.618Z,412.00
2018-12-19T11:51:48.591Z,408.00
2018-12-19T11:52:48.596Z,384.00
2018-12-19T11:53:48.557Z,368.00
2018-12-19T11:54:48.547Z,364.00
2018-12-19T11:55:48.538Z,360.00
2018-12-19T11:56:48.534Z,352.00
2018-12-19T11:57:48.530Z,336.00
2018-12-19T11:58:48.505Z,312.00
2018-12-19T11:59:48.492Z,300.00
2018-12-19T12:00:48.485Z,300.00
2018-12-19T12:01:48.470Z,304.00
2018-12-19T12:02:48.503Z,324.00
2018-12-19T12:03:48.451Z,348.00
2018-12-19T12:04:48.439Z,360.00
2018-12-19T12:05:48.429Z,380.00
2018-12-19T12:06:48.415Z,412.00
2018-12-19T12:07:48.422Z,424.00
2018-12-19T12:08:48.402Z,428.00
2018-12-19T12:09:48.399Z,436.00
2018-12-19T12:10:48.373Z,412.00
2018-12-19T12:11:48.361Z,380.00
2018-12-19T12:12:48.368Z,376.00
2018-12-19T12:13:48.344Z,372.00
2018-12-19T12:14:48.342Z,356.00
2018-12-19T12:15:48.321Z,352.00
2018-12-19T12:16:48.313Z,364.00
2018-12-19T12:17:48.309Z,396.00
2018-12-19T12:18:48.294Z,436.00
2018-12-19T12:19:48.283Z,472.00
2018-12-19T12:20:48.274Z,480.00
2018-12-19T12:21:48.250Z,472.00
2018-12-19T12:22:48.254Z,444.00
2018-12-19T12:23:48.299Z,424.00
2018-12-19T12:24:48.218Z,404.00
2018-12-19T12:25:48.207Z,380.00
2018-12-19T12:26:48.201Z,348.00
2018-12-19T12:27:48.222Z,344.00
2018-12-19T12:28:48.175Z,336.00
2018-12-19T12:29:48.166Z,328.00
2018-12-19T12:30:48.193Z,308.00
2018-12-19T12:31:48.141Z,292.00
2018-12-19T12:32:48.156Z,280.00
2018-12-19T12:33:48.146Z,272.00
2018-12-19T12:34:48.110Z,256.00
2018-12-19T12:35:48.101Z,248.00
2018-12-19T12:36:48.089Z,240.00
2018-12-19T12:37:49.031Z,240.00
2018-12-19T12:38:48.593Z,248.00
2018-12-19T12:39:48.055Z,252.00
2018-12-19T12:40:48.050Z,232.00
2018-12-19T12:41:52.278Z,220.00
2018-12-19T12:42:48.037Z,216.00
2018-12-19T12:43:48.017Z,212.00
2018-12-19T12:44:48.019Z,212.00
2018-12-19T12:45:47.989Z,212.00
2018-12-19T12:46:47.978Z,212.00
2018-12-19T12:47:47.982Z,208.00
2018-12-19T12:48:47.969Z,208.00
2018-12-19T12:49:47.961Z,208.00
2018-12-19T12:50:47.955Z,196.00
2018-12-19T12:51:47.922Z,192.00
2018-12-19T12:52:47.937Z,180.00
2018-12-19T12:53:47.902Z,180.00
2018-12-19T12:54:47.891Z,184.00
2018-12-19T12:55:47.891Z,192.00